createdAt,value
2023-05-22T00:00:08.997Z,16.90
2023-05-22T00:02:43.669Z,16.91
2023-05-22T00:05:13.480Z,16.83
2023-05-22T00:07:43.411Z,16.78
2023-05-22T00:10:11.583Z,16.70
2023-05-22T00:12:39.407Z,16.78
2023-05-22T00:15:07.802Z,16.80
2023-05-22T00:17:35.664Z,16.69
2023-05-22T00:20:05.861Z,16.69
2023-05-22T00:22:36.938Z,16.65
2023-05-22T00:25:05.878Z,16.57
2023-05-22T00:27:34.118Z,16.44
2023-05-22T00:30:01.828Z,16.39
2023-05-22T00:32:30.631Z,16.29
2023-05-22T00:34:58.425Z,16.35
2023-05-22T00:37:26.069Z,16.40
2023-05-22T00:39:53.628Z,16.36
2023-05-22T00:42:21.549Z,16.28
2023-05-22T00:44:49.377Z,16.26
2023-05-22T00:47:17.270Z,16.24
2023-05-22T00:49:45.795Z,16.29
2023-05-22T00:52:14.769Z,16.31
2023-05-22T00:54:43.448Z,16.36
2023-05-22T00:57:11.721Z,16.39
2023-05-22T00:59:39.660Z,16.39
2023-05-22T01:02:07.233Z,16.40
2023-05-22T01:04:35.411Z,16.31
2023-05-22T01:07:03.379Z,16.26
2023-05-22T01:09:31.382Z,16.20
2023-05-22T01:12:25.990Z,16.17
2023-05-22T01:15:17.633Z,16.10
2023-05-22T01:17:55.830Z,16.22
2023-05-22T01:20:34.564Z,16.25
2023-05-22T01:23:23.316Z,16.18
2023-05-22T01:26:18.317Z,16.10
2023-05-22T01:28:48.876Z,16.12
2023-05-22T01:31:18.110Z,16.14
2023-05-22T01:33:56.952Z,16.18
2023-05-22T01:36:29.035Z,16.14
2023-05-22T01:38:59.099Z,16.09
2023-05-22T01:41:29.473Z,16.11
2023-05-22T01:43:57.521Z,16.10
2023-05-22T01:46:29.370Z,16.03
2023-05-22T01:48:58.106Z,16.05
2023-05-22T01:52:06.936Z,15.97
2023-05-22T01:54:52.984Z,15.93
2023-05-22T01:57:47.930Z,15.93
2023-05-22T02:00:18.591Z,15.86
2023-05-22T02:02:51.609Z,15.73
2023-05-22T02:05:23.448Z,15.64
2023-05-22T02:07:52.852Z,15.56
2023-05-22T02:10:21.960Z,15.52
2023-05-22T02:12:49.550Z,15.43
2023-05-22T02:15:17.588Z,15.45
2023-05-22T02:17:45.774Z,15.52
2023-05-22T02:20:15.678Z,15.41
2023-05-22T02:22:47.627Z,15.33
2023-05-22T02:25:17.527Z,15.34
2023-05-22T02:27:50.121Z,15.45
2023-05-22T02:30:17.837Z,15.53
2023-05-22T02:32:49.491Z,15.59
2023-05-22T02:35:17.143Z,15.53
2023-05-22T02:37:45.822Z,15.53
2023-05-22T02:40:15.817Z,15.55
2023-05-22T02:42:43.421Z,15.55
2023-05-22T02:45:11.786Z,15.51
2023-05-22T02:47:39.607Z,15.45
2023-05-22T02:50:07.791Z,15.55
2023-05-22T02:52:37.214Z,15.55
2023-05-22T02:55:05.325Z,15.58
2023-05-22T02:57:33.045Z,15.51
2023-05-22T03:00:01.902Z,15.47
2023-05-22T03:02:32.596Z,15.33
2023-05-22T03:05:00.282Z,15.29
2023-05-22T03:07:29.714Z,15.34
2023-05-22T03:09:57.682Z,15.35
2023-05-22T03:12:25.196Z,15.31
2023-05-22T03:14:52.694Z,15.27
2023-05-22T03:17:20.300Z,15.29
2023-05-22T03:19:48.132Z,15.38
2023-05-22T03:22:15.794Z,15.33
2023-05-22T03:24:43.389Z,15.34
2023-05-22T03:27:16.155Z,15.28
2023-05-22T03:29:44.149Z,15.33
2023-05-22T03:32:11.629Z,15.38
2023-05-22T03:34:39.549Z,15.49
2023-05-22T03:37:09.924Z,15.72
2023-05-22T03:39:39.690Z,16.00
2023-05-22T03:42:27.589Z,16.31
2023-05-22T03:44:55.252Z,16.50
2023-05-22T03:47:23.014Z,16.62
2023-05-22T03:49:50.623Z,16.74
2023-05-22T03:52:18.103Z,16.89
2023-05-22T03:54:45.780Z,17.27
2023-05-22T03:57:14.198Z,17.70
2023-05-22T03:59:42.073Z,18.17
2023-05-22T04:02:13.279Z,18.56
2023-05-22T04:04:40.894Z,18.95
2023-05-22T04:07:09.217Z,19.34
2023-05-22T04:09:36.836Z,19.76
2023-05-22T04:12:04.586Z,20.34
2023-05-22T04:14:32.856Z,20.47
2023-05-22T04:17:00.350Z,20.69
2023-05-22T04:19:30.357Z,20.85
2023-05-22T04:21:58.615Z,21.06
2023-05-22T04:24:27.726Z,21.05
2023-05-22T04:26:56.356Z,21.09
2023-05-22T04:29:24.434Z,21.27
2023-05-22T04:31:54.519Z,21.63
2023-05-22T04:34:23.179Z,21.71
2023-05-22T04:36:50.660Z,21.91
2023-05-22T04:39:18.567Z,21.81
2023-05-22T04:41:46.130Z,21.80
2023-05-22T04:44:14.457Z,21.94
2023-05-22T04:46:42.523Z,22.30
2023-05-22T04:49:10.549Z,22.65
2023-05-22T04:51:38.221Z,22.54
2023-05-22T04:54:06.471Z,22.52
2023-05-22T04:56:36.697Z,22.71
2023-05-22T04:59:09.063Z,23.06
2023-05-22T05:01:38.240Z,23.22
2023-05-22T05:04:06.232Z,23.36
2023-05-22T05:06:34.914Z,23.36
2023-05-22T05:09:04.676Z,23.13
2023-05-22T05:11:32.251Z,22.98
2023-05-22T05:13:59.861Z,23.42
2023-05-22T05:16:27.469Z,23.61
2023-05-22T05:18:57.697Z,23.57
2023-05-22T05:21:28.135Z,23.69
2023-05-22T05:23:58.834Z,23.83
2023-05-22T05:26:27.473Z,23.95
2023-05-22T05:28:56.854Z,24.04
2023-05-22T05:31:30.469Z,23.97
2023-05-22T05:34:21.458Z,23.62
2023-05-22T05:36:58.071Z,23.87
2023-05-22T05:39:26.505Z,23.92
2023-05-22T05:41:54.218Z,23.51
2023-05-22T05:44:21.890Z,23.48
2023-05-22T05:46:49.566Z,23.16
2023-05-22T05:49:19.981Z,23.21
2023-05-22T05:51:48.350Z,23.55
2023-05-22T05:54:17.219Z,23.76
2023-05-22T05:56:46.531Z,23.73
2023-05-22T05:59:14.155Z,23.29
2023-05-22T06:02:00.170Z,23.10
2023-05-22T06:04:31.886Z,23.01
2023-05-22T06:07:01.964Z,22.92
2023-05-22T06:09:39.829Z,23.19
2023-05-22T06:12:21.416Z,23.05
2023-05-22T06:14:48.999Z,22.82
2023-05-22T06:17:17.123Z,22.86
2023-05-22T06:19:46.175Z,22.76
2023-05-22T06:22:14.563Z,23.05
2023-05-22T06:24:45.179Z,23.27
2023-05-22T06:27:17.511Z,23.29
2023-05-22T06:29:45.316Z,23.34
2023-05-22T06:32:13.415Z,23.08
2023-05-22T06:34:45.179Z,22.83
2023-05-22T06:37:13.820Z,22.70
2023-05-22T06:39:44.100Z,22.44
2023-05-22T06:42:16.928Z,21.98
2023-05-22T06:45:05.138Z,21.67
2023-05-22T06:47:41.421Z,21.54
2023-05-22T06:50:10.829Z,21.39
2023-05-22T06:52:39.232Z,21.28
2023-05-22T06:55:10.168Z,21.26
2023-05-22T06:57:50.180Z,21.28
2023-05-22T07:00:21.645Z,21.58
2023-05-22T07:03:02.679Z,21.77
2023-05-22T07:05:40.661Z,21.67
2023-05-22T07:08:09.001Z,21.67
2023-05-22T07:10:36.582Z,21.86
2023-05-22T07:13:04.172Z,22.15
2023-05-22T07:15:33.443Z,22.35
2023-05-22T07:18:03.839Z,22.44
2023-05-22T07:20:31.559Z,22.53
2023-05-22T07:23:15.951Z,22.21
2023-05-22T07:25:44.025Z,22.25
2023-05-22T07:28:13.341Z,22.18
2023-05-22T07:30:52.122Z,22.61
2023-05-22T07:33:19.806Z,22.88
2023-05-22T07:35:47.482Z,23.07
2023-05-22T07:38:15.293Z,23.20
2023-05-22T07:40:50.147Z,23.24
2023-05-22T07:43:18.380Z,23.24
2023-05-22T07:45:47.230Z,23.09
2023-05-22T07:48:17.630Z,22.93
2023-05-22T07:50:46.380Z,23.10
2023-05-22T07:53:16.603Z,23.20
2023-05-22T07:55:46.161Z,23.36
2023-05-22T07:58:14.718Z,23.46
2023-05-22T08:00:44.025Z,23.36
2023-05-22T08:03:12.382Z,23.52
2023-05-22T08:06:35.206Z,24.11
2023-05-22T08:09:04.882Z,24.22
2023-05-22T08:11:34.106Z,24.61
2023-05-22T08:14:01.930Z,24.85
2023-05-22T08:16:31.077Z,25.36
2023-05-22T08:18:58.766Z,25.63
2023-05-22T08:21:26.357Z,25.16
2023-05-22T08:23:53.846Z,25.59
2023-05-22T08:26:21.607Z,25.36
2023-05-22T08:28:49.161Z,24.96
2023-05-22T08:31:16.802Z,25.11
2023-05-22T08:33:44.378Z,25.67
2023-05-22T08:36:12.039Z,25.03
2023-05-22T08:38:39.515Z,24.95
2023-05-22T08:41:08.128Z,24.85
2023-05-22T08:43:36.347Z,24.47
2023-05-22T08:46:05.961Z,24.52
2023-05-22T08:48:33.691Z,24.55
2023-05-22T08:51:05.989Z,24.41
2023-05-22T08:53:37.640Z,24.17
2023-05-22T08:56:06.976Z,24.33
2023-05-22T08:58:38.427Z,24.09
2023-05-22T09:01:07.535Z,23.77
2023-05-22T09:03:37.062Z,23.35
2023-05-22T09:06:09.474Z,23.18
2023-05-22T09:08:38.288Z,23.35
2023-05-22T09:11:05.967Z,23.72
2023-05-22T09:13:33.460Z,23.88
2023-05-22T09:16:12.121Z,23.97
2023-05-22T09:18:41.211Z,24.17
2023-05-22T09:21:21.456Z,23.96
2023-05-22T09:24:00.139Z,23.84
2023-05-22T09:26:29.450Z,23.65
2023-05-22T09:28:59.745Z,23.57
2023-05-22T09:31:29.156Z,23.75
2023-05-22T09:33:56.928Z,23.77
2023-05-22T09:36:33.424Z,23.87
2023-05-22T09:39:02.017Z,24.17
2023-05-22T09:41:32.942Z,24.12
2023-05-22T09:44:01.911Z,24.12
2023-05-22T09:46:30.059Z,24.31
2023-05-22T09:48:57.635Z,24.44
2023-05-22T09:51:26.763Z,24.97
2023-05-22T09:54:03.685Z,25.47
2023-05-22T09:56:39.142Z,25.56
2023-05-22T09:59:09.904Z,25.24
2023-05-22T10:01:39.988Z,25.50
2023-05-22T10:04:12.767Z,25.70
2023-05-22T10:06:42.309Z,25.75
2023-05-22T10:09:18.813Z,25.69
2023-05-22T10:11:48.884Z,25.68
2023-05-22T10:14:17.150Z,25.26
2023-05-22T10:16:45.428Z,24.67
2023-05-22T10:19:13.393Z,24.93
2023-05-22T10:21:42.275Z,24.88
2023-05-22T10:24:10.430Z,24.90
2023-05-22T10:26:38.990Z,24.96
2023-05-22T10:29:22.525Z,25.05
2023-05-22T10:32:05.219Z,25.74
2023-05-22T10:35:02.148Z,25.51
2023-05-22T10:37:52.062Z,25.76
2023-05-22T10:40:29.390Z,25.50
2023-05-22T10:42:58.834Z,25.04
2023-05-22T10:45:28.629Z,25.08
2023-05-22T10:48:09.725Z,25.23
2023-05-22T10:50:39.298Z,24.97
2023-05-22T10:53:21.617Z,24.94
2023-05-22T10:56:02.517Z,24.32
2023-05-22T10:58:31.887Z,24.28
2023-05-22T11:01:13.520Z,24.25
2023-05-22T11:04:16.076Z,24.43
2023-05-22T11:07:08.749Z,24.59
2023-05-22T11:09:43.509Z,24.79
2023-05-22T11:12:25.183Z,25.00
2023-05-22T11:15:09.831Z,25.14
2023-05-22T11:17:40.304Z,25.12
2023-05-22T11:20:21.218Z,25.28
2023-05-22T11:22:52.325Z,25.25
2023-05-22T11:25:20.415Z,25.67
2023-05-22T11:27:49.227Z,25.37
2023-05-22T11:30:17.617Z,25.03
2023-05-22T11:32:46.386Z,24.86
2023-05-22T11:35:18.878Z,24.79
2023-05-22T11:37:47.748Z,24.99
2023-05-22T11:40:18.172Z,24.85
2023-05-22T11:42:45.830Z,24.76
2023-05-22T11:45:13.926Z,24.65
2023-05-22T11:47:42.136Z,24.58
2023-05-22T11:50:10.756Z,24.42
2023-05-22T11:52:40.514Z,24.77
2023-05-22T11:55:09.140Z,24.66
2023-05-22T11:57:37.436Z,24.65
2023-05-22T12:00:07.061Z,24.41
2023-05-22T12:02:45.646Z,24.47
2023-05-22T12:05:14.172Z,24.53
2023-05-22T12:07:41.998Z,24.12
2023-05-22T12:10:11.292Z,24.31
2023-05-22T12:12:39.274Z,24.47
2023-05-22T12:15:07.766Z,24.73
2023-05-22T12:17:40.396Z,24.94
2023-05-22T12:20:12.360Z,24.79
2023-05-22T12:22:44.159Z,24.78
2023-05-22T12:25:17.328Z,24.79
2023-05-22T12:27:46.025Z,24.76
2023-05-22T12:30:14.830Z,24.88
2023-05-22T12:32:49.024Z,25.00
2023-05-22T12:35:17.542Z,24.80
2023-05-22T12:37:49.828Z,25.04
2023-05-22T12:40:18.201Z,25.52
2023-05-22T12:42:46.128Z,25.13
2023-05-22T12:45:14.021Z,24.74
2023-05-22T12:47:41.762Z,24.73
2023-05-22T12:50:09.593Z,25.08
2023-05-22T12:52:37.192Z,24.78
2023-05-22T12:55:05.178Z,24.90
2023-05-22T12:57:32.741Z,25.09
2023-05-22T13:00:00.334Z,25.25
2023-05-22T13:02:27.939Z,25.22
2023-05-22T13:04:55.682Z,25.06
2023-05-22T13:07:23.210Z,24.94
2023-05-22T13:09:50.738Z,24.79
2023-05-22T13:12:19.425Z,24.62
2023-05-22T13:14:47.118Z,24.52
2023-05-22T13:17:14.746Z,24.68
2023-05-22T13:19:42.493Z,24.86
2023-05-22T13:22:10.099Z,24.63
2023-05-22T13:24:37.618Z,24.55
2023-05-22T13:27:05.328Z,24.65
2023-05-22T13:29:33.698Z,24.65
2023-05-22T13:32:01.949Z,24.61
2023-05-22T13:34:30.297Z,24.67
2023-05-22T13:36:58.033Z,24.61
2023-05-22T13:39:25.751Z,24.68
2023-05-22T13:41:53.472Z,24.69
2023-05-22T13:44:21.486Z,24.70
2023-05-22T13:46:49.142Z,24.74
2023-05-22T13:49:16.765Z,24.60
2023-05-22T13:51:44.333Z,24.59
2023-05-22T13:54:12.002Z,24.61
2023-05-22T13:56:39.485Z,24.65
2023-05-22T13:59:09.226Z,24.85
2023-05-22T14:01:37.122Z,25.03
2023-05-22T14:04:05.309Z,25.02
2023-05-22T14:06:32.963Z,24.66
2023-05-22T14:09:00.697Z,24.71
2023-05-22T14:11:28.357Z,25.03
2023-05-22T14:13:55.962Z,25.05
2023-05-22T14:16:23.816Z,24.80
2023-05-22T14:18:51.682Z,24.91
2023-05-22T14:21:19.617Z,25.05
2023-05-22T14:23:47.311Z,25.05
2023-05-22T14:26:15.113Z,24.95
2023-05-22T14:28:43.337Z,24.81
2023-05-22T14:31:10.965Z,24.77
2023-05-22T14:33:38.584Z,24.74
2023-05-22T14:36:06.446Z,24.72
2023-05-22T14:38:34.585Z,24.73
2023-05-22T14:41:02.986Z,24.78
2023-05-22T14:43:30.698Z,24.75
2023-05-22T14:45:59.324Z,24.60
2023-05-22T14:48:29.513Z,24.63
2023-05-22T14:50:57.118Z,24.65
2023-05-22T14:53:24.935Z,24.71
2023-05-22T14:55:52.452Z,24.88
2023-05-22T14:58:20.233Z,24.88
2023-05-22T15:00:47.749Z,25.15
2023-05-22T15:03:15.390Z,25.03
2023-05-22T15:05:42.964Z,24.71
2023-05-22T15:08:10.754Z,24.73
2023-05-22T15:10:38.244Z,24.78
2023-05-22T15:13:05.853Z,24.59
2023-05-22T15:15:33.456Z,24.41
2023-05-22T15:18:02.873Z,24.31
2023-05-22T15:20:31.433Z,24.36
2023-05-22T15:22:59.905Z,24.40
2023-05-22T15:25:27.962Z,24.51
2023-05-22T15:27:55.554Z,24.56
2023-05-22T15:30:23.752Z,24.50
2023-05-22T15:32:51.339Z,24.42
2023-05-22T15:35:18.917Z,24.26
2023-05-22T15:37:46.695Z,24.16
2023-05-22T15:40:17.475Z,24.06
2023-05-22T15:42:45.248Z,23.99
2023-05-22T15:45:12.719Z,23.83
2023-05-22T15:47:41.016Z,23.71
2023-05-22T15:50:09.274Z,23.66
2023-05-22T15:52:37.987Z,23.70
2023-05-22T15:55:06.012Z,23.67
2023-05-22T15:57:34.302Z,23.72
2023-05-22T16:00:01.878Z,23.67
2023-05-22T16:02:32.014Z,23.52
2023-05-22T16:04:59.644Z,23.44
2023-05-22T16:07:27.229Z,23.35
2023-05-22T16:09:54.751Z,23.31
2023-05-22T16:12:22.401Z,23.29
2023-05-22T16:14:49.978Z,23.31
2023-05-22T16:17:17.593Z,23.20
2023-05-22T16:19:45.073Z,23.01
2023-05-22T16:22:12.628Z,22.80
2023-05-22T16:24:40.094Z,22.69
2023-05-22T16:27:07.595Z,22.66
2023-05-22T16:29:35.289Z,22.67
2023-05-22T16:32:03.872Z,22.60
2023-05-22T16:34:33.967Z,22.54
2023-05-22T16:37:01.494Z,22.48
2023-05-22T16:39:29.064Z,22.36
2023-05-22T16:41:56.604Z,22.26
2023-05-22T16:44:24.232Z,22.25
2023-05-22T16:46:51.729Z,22.26
2023-05-22T16:49:19.416Z,22.19
2023-05-22T16:51:46.886Z,22.13
2023-05-22T16:54:14.418Z,22.06
2023-05-22T16:56:42.623Z,22.05
2023-05-22T16:59:10.136Z,22.06
2023-05-22T17:01:37.813Z,22.05
2023-05-22T17:04:05.406Z,21.94
2023-05-22T17:06:33.029Z,21.87
2023-05-22T17:09:00.578Z,21.71
2023-05-22T17:11:28.151Z,21.81
2023-05-22T17:13:55.672Z,21.73
2023-05-22T17:16:23.332Z,21.48
2023-05-22T17:18:51.829Z,21.38
2023-05-22T17:21:22.050Z,21.24
2023-05-22T17:23:49.682Z,21.17
2023-05-22T17:26:17.300Z,21.15
2023-05-22T17:28:44.853Z,21.06
2023-05-22T17:31:12.403Z,21.07
2023-05-22T17:33:40.001Z,20.98
2023-05-22T17:36:07.724Z,20.90
2023-05-22T17:38:36.244Z,20.82
2023-05-22T17:41:03.887Z,20.80
2023-05-22T17:43:35.177Z,20.80
2023-05-22T17:46:02.919Z,20.81
2023-05-22T17:48:30.518Z,20.75
2023-05-22T17:50:59.599Z,20.54
2023-05-22T17:53:27.258Z,20.44
2023-05-22T17:55:54.832Z,20.37
2023-05-22T17:58:22.614Z,20.35
2023-05-22T18:00:50.275Z,20.31
2023-05-22T18:03:20.669Z,20.33
2023-05-22T18:05:50.146Z,20.42
2023-05-22T18:08:18.655Z,20.44
2023-05-22T18:10:46.175Z,20.26
2023-05-22T18:13:13.770Z,20.37
2023-05-22T18:15:41.590Z,20.30
2023-05-22T18:18:11.390Z,20.23
2023-05-22T18:20:40.620Z,20.13
2023-05-22T18:23:08.600Z,19.98
2023-05-22T18:25:36.103Z,19.88
2023-05-22T18:28:03.723Z,19.80
2023-05-22T18:30:32.381Z,19.77
2023-05-22T18:33:00.000Z,19.81
2023-05-22T18:35:27.698Z,19.73
2023-05-22T18:37:55.355Z,19.75
2023-05-22T18:40:22.918Z,19.71
2023-05-22T18:42:50.405Z,19.78
2023-05-22T18:45:17.999Z,19.64
2023-05-22T18:47:45.590Z,19.77
2023-05-22T18:50:13.118Z,19.84
2023-05-22T18:52:40.854Z,19.90
2023-05-22T18:55:08.829Z,19.94
2023-05-22T18:57:36.403Z,19.98
2023-05-22T19:00:04.346Z,20.02
2023-05-22T19:02:31.997Z,20.03
2023-05-22T19:04:59.629Z,19.90
2023-05-22T19:07:27.221Z,19.87
2023-05-22T19:09:54.751Z,19.84
2023-05-22T19:12:24.718Z,19.70
2023-05-22T19:14:54.096Z,19.62
2023-05-22T19:17:21.646Z,19.58
2023-05-22T19:19:49.154Z,19.58
2023-05-22T19:22:18.185Z,19.60
2023-05-22T19:24:45.720Z,19.63
2023-05-22T19:27:13.255Z,19.66
2023-05-22T19:29:40.854Z,19.57
2023-05-22T19:32:08.335Z,19.58
2023-05-22T19:34:36.246Z,19.51
2023-05-22T19:37:03.916Z,19.62
2023-05-22T19:39:31.575Z,19.55
2023-05-22T19:41:59.089Z,19.44
2023-05-22T19:44:26.722Z,19.30
2023-05-22T19:46:54.215Z,19.20
2023-05-22T19:49:21.792Z,19.13
2023-05-22T19:51:49.293Z,19.07
2023-05-22T19:54:17.127Z,19.00
2023-05-22T19:56:44.629Z,18.95
2023-05-22T19:59:12.147Z,18.86
2023-05-22T20:01:39.652Z,18.76
2023-05-22T20:04:07.353Z,18.70
2023-05-22T20:06:35.221Z,18.62
2023-05-22T20:09:05.844Z,18.55
2023-05-22T20:11:33.352Z,18.50
2023-05-22T20:14:02.639Z,18.47
2023-05-22T20:16:30.305Z,18.44
2023-05-22T20:18:57.953Z,18.42
2023-05-22T20:21:25.766Z,18.33
2023-05-22T20:23:53.251Z,18.29
2023-05-22T20:26:20.862Z,18.28
2023-05-22T20:28:48.291Z,18.25
2023-05-22T20:31:15.879Z,18.21
2023-05-22T20:33:43.487Z,18.22
2023-05-22T20:36:11.049Z,18.14
2023-05-22T20:38:38.611Z,18.10
2023-05-22T20:41:09.191Z,18.05
2023-05-22T20:43:37.545Z,18.00
2023-05-22T20:46:05.004Z,18.00
2023-05-22T20:48:32.545Z,17.98
2023-05-22T20:51:00.140Z,17.93
2023-05-22T20:53:27.931Z,17.89
2023-05-22T20:55:57.611Z,17.82
2023-05-22T20:58:25.153Z,17.81
2023-05-22T21:00:52.734Z,17.81
2023-05-22T21:03:20.259Z,17.79
2023-05-22T21:05:47.867Z,17.75
2023-05-22T21:08:15.410Z,17.71
2023-05-22T21:10:43.000Z,17.66
2023-05-22T21:13:10.560Z,17.63
2023-05-22T21:15:38.300Z,17.62
2023-05-22T21:18:06.422Z,17.60
2023-05-22T21:20:33.992Z,17.56
2023-05-22T21:23:01.500Z,17.64
2023-05-22T21:25:29.230Z,17.63
2023-05-22T21:27:57.770Z,17.62
2023-05-22T21:30:25.378Z,17.59
2023-05-22T21:32:52.926Z,17.62
2023-05-22T21:35:23.253Z,17.57
2023-05-22T21:37:50.720Z,17.57
2023-05-22T21:40:18.322Z,17.59
2023-05-22T21:42:47.378Z,17.62
2023-05-22T21:45:15.634Z,17.56
2023-05-22T21:47:43.190Z,17.57
2023-05-22T21:50:11.285Z,17.62
2023-05-22T21:52:38.783Z,17.67
2023-05-22T21:55:07.942Z,17.65
2023-05-22T21:57:35.413Z,17.65
2023-05-22T22:00:03.000Z,17.65
2023-05-22T22:02:32.583Z,17.64
2023-05-22T22:05:00.085Z,17.62
2023-05-22T22:07:27.638Z,17.56
2023-05-22T22:09:55.363Z,17.53
2023-05-22T22:12:22.947Z,17.52
2023-05-22T22:14:50.656Z,17.45
2023-05-22T22:17:23.975Z,17.45
2023-05-22T22:19:53.691Z,17.41
2023-05-22T22:22:22.870Z,17.40
2023-05-22T22:24:50.920Z,17.46
2023-05-22T22:27:19.790Z,17.48
2023-05-22T22:29:47.682Z,17.66
2023-05-22T22:32:15.402Z,17.73
2023-05-22T22:34:44.018Z,17.73
2023-05-22T22:37:12.124Z,17.75
2023-05-22T22:39:39.779Z,17.69
2023-05-22T22:42:07.780Z,17.70
2023-05-22T22:44:35.377Z,17.72
2023-05-22T22:47:03.063Z,17.72
2023-05-22T22:49:32.098Z,17.62
2023-05-22T22:51:59.649Z,17.48
2023-05-22T22:54:27.286Z,17.34
2023-05-22T22:56:55.028Z,17.27
2023-05-22T22:59:22.774Z,17.23
2023-05-22T23:01:50.353Z,17.24
2023-05-22T23:04:17.928Z,17.19
2023-05-22T23:06:46.287Z,17.25
2023-05-22T23:09:14.708Z,17.10
2023-05-22T23:11:42.213Z,16.92
2023-05-22T23:14:09.814Z,16.73
2023-05-22T23:16:41.056Z,16.59
2023-05-22T23:19:10.562Z,16.41
2023-05-22T23:21:38.193Z,16.38
2023-05-22T23:24:06.312Z,16.40
2023-05-22T23:26:34.351Z,16.38
2023-05-22T23:29:02.333Z,16.32
2023-05-22T23:31:32.576Z,16.36
2023-05-22T23:34:00.239Z,16.37
2023-05-22T23:36:27.802Z,16.41
2023-05-22T23:38:55.391Z,16.43
2023-05-22T23:41:24.545Z,16.45
2023-05-22T23:43:52.091Z,16.48
2023-05-22T23:46:21.430Z,16.53
2023-05-22T23:48:49.010Z,16.57
2023-05-22T23:51:17.052Z,16.63
2023-05-22T23:53:45.021Z,16.67
2023-05-22T23:56:12.608Z,16.68
2023-05-22T23:58:40.421Z,16.66
